sensor_id;sensor_type;location;lat;lon;timestamp;temperature;humidity
13642;DHT22;6894;52.196;9.904;2023-04-24T00:02:17;12.90;99.90
13642;DHT22;6894;52.196;9.904;2023-04-24T00:04:44;12.90;99.90
13642;DHT22;6894;52.196;9.904;2023-04-24T00:07:11;12.80;99.90
13642;DHT22;6894;52.196;9.904;2023-04-24T00:09:38;12.80;99.90
13642;DHT22;6894;52.196;9.904;2023-04-24T00:12:05;12.80;99.90
13642;DHT22;6894;52.196;9.904;2023-04-24T00:14:32;12.70;99.90
13642;DHT22;6894;52.196;9.904;2023-04-24T00:17:02;12.70;99.90
13642;DHT22;6894;52.196;9.904;2023-04-24T00:19:29;12.80;99.90
13642;DHT22;6894;52.196;9.904;2023-04-24T00:21:56;12.70;99.90
13642;DHT22;6894;52.196;9.904;2023-04-24T00:24:22;12.70;99.90
13642;DHT22;6894;52.196;9.904;2023-04-24T00:26:49;12.60;99.90
13642;DHT22;6894;52.196;9.904;2023-04-24T00:29:16;12.70;99.90
13642;DHT22;6894;52.196;9.904;2023-04-24T00:31:43;12.70;99.90
13642;DHT22;6894;52.196;9.904;2023-04-24T00:34:11;12.60;99.90
13642;DHT22;6894;52.196;9.904;2023-04-24T00:36:38;12.60;99.90
13642;DHT22;6894;52.196;9.904;2023-04-24T00:39:04;12.50;99.90
13642;DHT22;6894;52.196;9.904;2023-04-24T00:41:34;12.50;99.90
13642;DHT22;6894;52.196;9.904;2023-04-24T00:44:01;12.50;99.90
13642;DHT22;6894;52.196;9.904;2023-04-24T00:46:28;12.50;99.90
13642;DHT22;6894;52.196;9.904;2023-04-24T00:48:56;12.50;99.90
13642;DHT22;6894;52.196;9.904;2023-04-24T00:51:24;12.50;99.90
13642;DHT22;6894;52.196;9.904;2023-04-24T00:53:51;12.50;99.90
13642;DHT22;6894;52.196;9.904;2023-04-24T00:56:18;12.50;99.90
13642;DHT22;6894;52.196;9.904;2023-04-24T00:58:45;12.40;99.90
13642;DHT22;6894;52.196;9.904;2023-04-24T01:01:12;12.40;99.90
13642;DHT22;6894;52.196;9.904;2023-04-24T01:03:40;12.30;99.90
13642;DHT22;6894;52.196;9.904;2023-04-24T01:06:07;12.30;99.90
13642;DHT22;6894;52.196;9.904;2023-04-24T01:08:37;12.30;99.90
13642;DHT22;6894;52.196;9.904;2023-04-24T01:11:05;12.40;99.90
13642;DHT22;6894;52.196;9.904;2023-04-24T01:13:32;12.30;99.90
13642;DHT22;6894;52.196;9.904;2023-04-24T01:16:00;12.30;99.90
13642;DHT22;6894;52.196;9.904;2023-04-24T01:18:27;12.20;99.90
13642;DHT22;6894;52.196;9.904;2023-04-24T01:20:57;12.20;99.90
13642;DHT22;6894;52.196;9.904;2023-04-24T01:23:25;12.20;99.90
13642;DHT22;6894;52.196;9.904;2023-04-24T01:25:52;12.20;99.90
13642;DHT22;6894;52.196;9.904;2023-04-24T01:28:19;12.20;99.90
13642;DHT22;6894;52.196;9.904;2023-04-24T01:30:46;12.20;99.90
13642;DHT22;6894;52.196;9.904;2023-04-24T01:33:13;12.20;99.90
13642;DHT22;6894;52.196;9.904;2023-04-24T01:35:40;12.20;99.90
13642;DHT22;6894;52.196;9.904;2023-04-24T01:38:07;12.20;99.90
13642;DHT22;6894;52.196;9.904;2023-04-24T01:40:35;12.30;99.90
13642;DHT22;6894;52.196;9.904;2023-04-24T01:43:02;12.20;99.90
13642;DHT22;6894;52.196;9.904;2023-04-24T01:45:29;12.20;99.90
13642;DHT22;6894;52.196;9.904;2023-04-24T01:47:56;12.20;99.90
13642;DHT22;6894;52.196;9.904;2023-04-24T01:50:23;12.10;99.90
13642;DHT22;6894;52.196;9.904;2023-04-24T01:52:50;12.20;99.90
13642;DHT22;6894;52.196;9.904;2023-04-24T01:55:17;12.10;99.90
13642;DHT22;6894;52.196;9.904;2023-04-24T01:57:45;12.20;99.90
13642;DHT22;6894;52.196;9.904;2023-04-24T02:00:12;12.10;99.90
13642;DHT22;6894;52.196;9.904;2023-04-24T02:02:40;12.00;99.90
13642;DHT22;6894;52.196;9.904;2023-04-24T02:05:08;12.00;99.90
13642;DHT22;6894;52.196;9.904;2023-04-24T02:07:35;12.00;99.90
13642;DHT22;6894;52.196;9.904;2023-04-24T02:10:02;11.90;99.90
13642;DHT22;6894;52.196;9.904;2023-04-24T02:12:29;11.90;99.90
13642;DHT22;6894;52.196;9.904;2023-04-24T02:14:57;12.00;99.90
13642;DHT22;6894;52.196;9.904;2023-04-24T02:17:24;11.90;99.90
13642;DHT22;6894;52.196;9.904;2023-04-24T02:19:51;11.90;99.90
13642;DHT22;6894;52.196;9.904;2023-04-24T02:22:18;11.90;99.90
13642;DHT22;6894;52.196;9.904;2023-04-24T02:24:44;11.90;99.90
13642;DHT22;6894;52.196;9.904;2023-04-24T02:27:13;11.80;99.90
13642;DHT22;6894;52.196;9.904;2023-04-24T02:29:40;11.70;99.90
13642;DHT22;6894;52.196;9.904;2023-04-24T02:32:08;11.80;99.90
13642;DHT22;6894;52.196;9.904;2023-04-24T02:34:37;11.70;99.90
13642;DHT22;6894;52.196;9.904;2023-04-24T02:37:04;11.70;99.90
13642;DHT22;6894;52.196;9.904;2023-04-24T02:39:30;11.60;99.90
13642;DHT22;6894;52.196;9.904;2023-04-24T02:41:57;11.60;99.90
13642;DHT22;6894;52.196;9.904;2023-04-24T02:44:24;11.60;99.90
13642;DHT22;6894;52.196;9.904;2023-04-24T02:46:51;11.50;99.90
13642;DHT22;6894;52.196;9.904;2023-04-24T02:49:19;11.40;99.90
13642;DHT22;6894;52.196;9.904;2023-04-24T02:51:46;11.40;99.90
13642;DHT22;6894;52.196;9.904;2023-04-24T02:54:12;11.40;99.90
13642;DHT22;6894;52.196;9.904;2023-04-24T02:56:39;11.30;99.90
13642;DHT22;6894;52.196;9.904;2023-04-24T02:59:06;11.30;99.90
13642;DHT22;6894;52.196;9.904;2023-04-24T03:01:33;11.30;99.90
13642;DHT22;6894;52.196;9.904;2023-04-24T03:04:00;11.30;99.90
13642;DHT22;6894;52.196;9.904;2023-04-24T03:06:28;11.20;99.90
13642;DHT22;6894;52.196;9.904;2023-04-24T03:08:56;11.30;99.90
13642;DHT22;6894;52.196;9.904;2023-04-24T03:11:23;11.20;99.90
13642;DHT22;6894;52.196;9.904;2023-04-24T03:13:50;11.20;99.90
13642;DHT22;6894;52.196;9.904;2023-04-24T03:16:17;11.20;99.90
13642;DHT22;6894;52.196;9.904;2023-04-24T03:18:44;11.20;99.90
13642;DHT22;6894;52.196;9.904;2023-04-24T03:21:11;11.20;99.90
13642;DHT22;6894;52.196;9.904;2023-04-24T03:23:39;11.10;99.90
13642;DHT22;6894;52.196;9.904;2023-04-24T03:26:06;11.10;99.90
13642;DHT22;6894;52.196;9.904;2023-04-24T03:28:33;11.10;99.90
13642;DHT22;6894;52.196;9.904;2023-04-24T03:31:00;11.00;99.90
13642;DHT22;6894;52.196;9.904;2023-04-24T03:33:26;11.00;99.90
13642;DHT22;6894;52.196;9.904;2023-04-24T03:35:53;10.90;99.90
13642;DHT22;6894;52.196;9.904;2023-04-24T03:38:20;10.90;99.90
13642;DHT22;6894;52.196;9.904;2023-04-24T03:40:48;10.90;99.90
13642;DHT22;6894;52.196;9.904;2023-04-24T03:43:15;10.90;99.90
13642;DHT22;6894;52.196;9.904;2023-04-24T03:45:41;10.80;99.90
13642;DHT22;6894;52.196;9.904;2023-04-24T03:48:08;10.80;99.90
13642;DHT22;6894;52.196;9.904;2023-04-24T03:50:35;10.70;99.90
13642;DHT22;6894;52.196;9.904;2023-04-24T03:53:02;10.70;99.90
13642;DHT22;6894;52.196;9.904;2023-04-24T03:55:29;10.80;99.90
13642;DHT22;6894;52.196;9.904;2023-04-24T03:57:57;10.80;99.90
13642;DHT22;6894;52.196;9.904;2023-04-24T04:00:24;10.80;99.90
13642;DHT22;6894;52.196;9.904;2023-04-24T04:02:51;10.70;99.90
13642;DHT22;6894;52.196;9.904;2023-04-24T04:05:18;10.70;99.90
13642;DHT22;6894;52.196;9.904;2023-04-24T04:07:45;10.70;99.90
13642;DHT22;6894;52.196;9.904;2023-04-24T04:10:11;10.70;99.90
13642;DHT22;6894;52.196;9.904;2023-04-24T04:12:38;10.80;99.90
13642;DHT22;6894;52.196;9.904;2023-04-24T04:15:07;10.70;99.90
13642;DHT22;6894;52.196;9.904;2023-04-24T04:17:34;10.70;99.90
13642;DHT22;6894;52.196;9.904;2023-04-24T04:20:00;10.70;99.90
13642;DHT22;6894;52.196;9.904;2023-04-24T04:22:31;10.80;99.90
13642;DHT22;6894;52.196;9.904;2023-04-24T04:24:57;10.70;99.90
13642;DHT22;6894;52.196;9.904;2023-04-24T04:27:25;10.80;99.90
13642;DHT22;6894;52.196;9.904;2023-04-24T04:29:52;10.80;99.90
13642;DHT22;6894;52.196;9.904;2023-04-24T04:32:20;10.80;99.90
13642;DHT22;6894;52.196;9.904;2023-04-24T04:34:47;10.80;99.90
13642;DHT22;6894;52.196;9.904;2023-04-24T04:37:15;10.80;99.90
13642;DHT22;6894;52.196;9.904;2023-04-24T04:39:41;10.80;99.90
13642;DHT22;6894;52.196;9.904;2023-04-24T04:42:08;10.90;99.90
13642;DHT22;6894;52.196;9.904;2023-04-24T04:44:35;10.90;99.90
13642;DHT22;6894;52.196;9.904;2023-04-24T04:47:04;10.90;99.90
13642;DHT22;6894;52.196;9.904;2023-04-24T04:49:32;10.90;99.90
13642;DHT22;6894;52.196;9.904;2023-04-24T04:51:59;10.90;99.90
13642;DHT22;6894;52.196;9.904;2023-04-24T04:54:26;11.00;99.90
13642;DHT22;6894;52.196;9.904;2023-04-24T04:56:53;11.00;99.90
13642;DHT22;6894;52.196;9.904;2023-04-24T04:59:20;11.00;99.90
13642;DHT22;6894;52.196;9.904;2023-04-24T05:01:47;11.10;99.90
13642;DHT22;6894;52.196;9.904;2023-04-24T05:04:13;11.10;99.90
13642;DHT22;6894;52.196;9.904;2023-04-24T05:06:42;11.10;99.90
13642;DHT22;6894;52.196;9.904;2023-04-24T05:09:08;11.20;99.90
13642;DHT22;6894;52.196;9.904;2023-04-24T05:11:35;11.30;99.90
13642;DHT22;6894;52.196;9.904;2023-04-24T05:14:02;11.40;99.90
13642;DHT22;6894;52.196;9.904;2023-04-24T05:16:29;11.40;99.90
13642;DHT22;6894;52.196;9.904;2023-04-24T05:18:56;11.50;99.90
13642;DHT22;6894;52.196;9.904;2023-04-24T05:21:22;11.50;99.90
13642;DHT22;6894;52.196;9.904;2023-04-24T05:23:50;11.60;99.90
13642;DHT22;6894;52.196;9.904;2023-04-24T05:26:17;11.60;99.90
13642;DHT22;6894;52.196;9.904;2023-04-24T05:28:44;11.60;99.90
13642;DHT22;6894;52.196;9.904;2023-04-24T05:31:11;11.60;99.90
13642;DHT22;6894;52.196;9.904;2023-04-24T05:33:38;11.60;99.90
13642;DHT22;6894;52.196;9.904;2023-04-24T05:36:06;11.70;99.90
13642;DHT22;6894;52.196;9.904;2023-04-24T05:38:33;11.70;99.90
13642;DHT22;6894;52.196;9.904;2023-04-24T05:41:01;11.70;99.90
13642;DHT22;6894;52.196;9.904;2023-04-24T05:43:28;11.80;99.90
13642;DHT22;6894;52.196;9.904;2023-04-24T05:45:55;11.80;99.90
13642;DHT22;6894;52.196;9.904;2023-04-24T05:48:21;11.70;99.90
13642;DHT22;6894;52.196;9.904;2023-04-24T05:50:48;11.80;99.90
13642;DHT22;6894;52.196;9.904;2023-04-24T05:53:16;11.90;99.90
13642;DHT22;6894;52.196;9.904;2023-04-24T05:55:43;11.90;99.90
13642;DHT22;6894;52.196;9.904;2023-04-24T05:58:11;11.90;99.90
13642;DHT22;6894;52.196;9.904;2023-04-24T06:00:38;11.90;99.90
13642;DHT22;6894;52.196;9.904;2023-04-24T06:03:08;12.00;99.90
13642;DHT22;6894;52.196;9.904;2023-04-24T06:05:34;12.00;99.90
13642;DHT22;6894;52.196;9.904;2023-04-24T06:08:01;12.10;99.90
13642;DHT22;6894;52.196;9.904;2023-04-24T06:10:28;12.20;99.90
13642;DHT22;6894;52.196;9.904;2023-04-24T06:12:55;12.30;99.90
13642;DHT22;6894;52.196;9.904;2023-04-24T06:15:27;12.40;99.90
13642;DHT22;6894;52.196;9.904;2023-04-24T06:17:55;12.30;99.90
13642;DHT22;6894;52.196;9.904;2023-04-24T06:20:22;12.30;99.90
13642;DHT22;6894;52.196;9.904;2023-04-24T06:22:49;12.20;99.90
13642;DHT22;6894;52.196;9.904;2023-04-24T06:25:16;12.20;99.90
13642;DHT22;6894;52.196;9.904;2023-04-24T06:27:43;12.10;99.90
13642;DHT22;6894;52.196;9.904;2023-04-24T06:30:10;11.80;99.90
13642;DHT22;6894;52.196;9.904;2023-04-24T06:32:39;11.50;99.90
13642;DHT22;6894;52.196;9.904;2023-04-24T06:35:07;11.40;99.90
13642;DHT22;6894;52.196;9.904;2023-04-24T06:37:35;11.20;99.90
13642;DHT22;6894;52.196;9.904;2023-04-24T06:40:02;11.10;99.90
13642;DHT22;6894;52.196;9.904;2023-04-24T06:42:29;11.00;99.90
13642;DHT22;6894;52.196;9.904;2023-04-24T06:44:55;11.00;99.90
13642;DHT22;6894;52.196;9.904;2023-04-24T06:47:22;10.90;99.90
13642;DHT22;6894;52.196;9.904;2023-04-24T06:49:50;11.00;99.90
13642;DHT22;6894;52.196;9.904;2023-04-24T06:52:18;11.00;99.90
13642;DHT22;6894;52.196;9.904;2023-04-24T06:54:45;11.00;99.90
13642;DHT22;6894;52.196;9.904;2023-04-24T06:57:11;11.00;99.90
13642;DHT22;6894;52.196;9.904;2023-04-24T06:59:38;11.10;99.90
13642;DHT22;6894;52.196;9.904;2023-04-24T07:02:05;11.00;99.90
13642;DHT22;6894;52.196;9.904;2023-04-24T07:04:32;11.10;99.90
13642;DHT22;6894;52.196;9.904;2023-04-24T07:07:00;11.20;99.90
13642;DHT22;6894;52.196;9.904;2023-04-24T07:09:27;11.20;99.90
13642;DHT22;6894;52.196;9.904;2023-04-24T07:11:54;11.30;99.90
13642;DHT22;6894;52.196;9.904;2023-04-24T07:14:22;11.30;99.90
13642;DHT22;6894;52.196;9.904;2023-04-24T07:16:49;11.40;99.90
13642;DHT22;6894;52.196;9.904;2023-04-24T07:19:15;11.40;99.90
13642;DHT22;6894;52.196;9.904;2023-04-24T07:21:42;11.50;99.90
13642;DHT22;6894;52.196;9.904;2023-04-24T07:24:10;11.60;99.90
13642;DHT22;6894;52.196;9.904;2023-04-24T07:26:38;11.70;99.90
13642;DHT22;6894;52.196;9.904;2023-04-24T07:29:05;11.70;99.90
13642;DHT22;6894;52.196;9.904;2023-04-24T07:31:32;11.80;99.90
13642;DHT22;6894;52.196;9.904;2023-04-24T07:33:59;12.00;99.90
13642;DHT22;6894;52.196;9.904;2023-04-24T07:36:26;12.20;1.00
13642;DHT22;6894;52.196;9.904;2023-04-24T07:38:54;12.50;99.90
13642;DHT22;6894;52.196;9.904;2023-04-24T07:41:22;12.40;84.80
13642;DHT22;6894;52.196;9.904;2023-04-24T07:43:49;12.30;46.20
13642;DHT22;6894;52.196;9.904;2023-04-24T07:46:16;12.40;99.90
13642;DHT22;6894;52.196;9.904;2023-04-24T07:48:43;12.70;99.90
13642;DHT22;6894;52.196;9.904;2023-04-24T07:51:11;12.90;1.00
13642;DHT22;6894;52.196;9.904;2023-04-24T07:53:38;13.10;1.00
13642;DHT22;6894;52.196;9.904;2023-04-24T07:56:05;13.20;99.90
13642;DHT22;6894;52.196;9.904;2023-04-24T07:58:34;13.20;99.90
13642;DHT22;6894;52.196;9.904;2023-04-24T08:01:01;13.40;99.90
13642;DHT22;6894;52.196;9.904;2023-04-24T08:03:27;13.60;99.90
13642;DHT22;6894;52.196;9.904;2023-04-24T08:05:55;13.60;99.90
13642;DHT22;6894;52.196;9.904;2023-04-24T08:08:22;13.50;99.90
13642;DHT22;6894;52.196;9.904;2023-04-24T08:10:49;13.50;99.90
13642;DHT22;6894;52.196;9.904;2023-04-24T08:13:16;13.40;99.90
13642;DHT22;6894;52.196;9.904;2023-04-24T08:15:44;13.40;99.90
13642;DHT22;6894;52.196;9.904;2023-04-24T08:18:11;13.50;99.90
13642;DHT22;6894;52.196;9.904;2023-04-24T08:20:39;13.60;99.90
13642;DHT22;6894;52.196;9.904;2023-04-24T08:23:05;13.70;99.90
13642;DHT22;6894;52.196;9.904;2023-04-24T08:25:32;14.00;99.90
13642;DHT22;6894;52.196;9.904;2023-04-24T08:28:01;14.40;1.00
13642;DHT22;6894;52.196;9.904;2023-04-24T08:30:28;14.50;99.90
13642;DHT22;6894;52.196;9.904;2023-04-24T08:32:56;14.50;1.00
13642;DHT22;6894;52.196;9.904;2023-04-24T08:35:23;14.60;99.90
13642;DHT22;6894;52.196;9.904;2023-04-24T08:37:51;14.70;99.90
13642;DHT22;6894;52.196;9.904;2023-04-24T08:40:19;14.80;99.90
13642;DHT22;6894;52.196;9.904;2023-04-24T08:42:49;15.10;99.90
13642;DHT22;6894;52.196;9.904;2023-04-24T08:45:19;15.40;99.90
13642;DHT22;6894;52.196;9.904;2023-04-24T08:47:46;15.10;99.90
13642;DHT22;6894;52.196;9.904;2023-04-24T08:50:16;14.90;99.90
13642;DHT22;6894;52.196;9.904;2023-04-24T08:52:43;14.90;99.90
13642;DHT22;6894;52.196;9.904;2023-04-24T08:55:10;15.20;99.90
13642;DHT22;6894;52.196;9.904;2023-04-24T08:57:37;15.00;99.90
13642;DHT22;6894;52.196;9.904;2023-04-24T09:00:06;14.70;99.90
13642;DHT22;6894;52.196;9.904;2023-04-24T09:02:34;14.50;99.90
13642;DHT22;6894;52.196;9.904;2023-04-24T09:05:02;14.30;99.90
13642;DHT22;6894;52.196;9.904;2023-04-24T09:07:32;14.20;99.90
13642;DHT22;6894;52.196;9.904;2023-04-24T09:10:01;14.00;99.90
13642;DHT22;6894;52.196;9.904;2023-04-24T09:12:28;14.00;99.90
13642;DHT22;6894;52.196;9.904;2023-04-24T09:14:56;14.30;99.90
13642;DHT22;6894;52.196;9.904;2023-04-24T09:17:24;14.70;99.90
13642;DHT22;6894;52.196;9.904;2023-04-24T09:19:52;14.70;99.90
13642;DHT22;6894;52.196;9.904;2023-04-24T09:22:20;14.60;99.90
13642;DHT22;6894;52.196;9.904;2023-04-24T09:25:00;14.80;99.90
13642;DHT22;6894;52.196;9.904;2023-04-24T09:27:28;14.50;99.90
13642;DHT22;6894;52.196;9.904;2023-04-24T09:29:55;14.10;99.90
13642;DHT22;6894;52.196;9.904;2023-04-24T09:32:23;13.80;99.90
13642;DHT22;6894;52.196;9.904;2023-04-24T09:35:05;13.70;99.90
13642;DHT22;6894;52.196;9.904;2023-04-24T09:37:35;13.60;99.90
13642;DHT22;6894;52.196;9.904;2023-04-24T09:40:12;13.50;99.90
13642;DHT22;6894;52.196;9.904;2023-04-24T09:42:39;13.60;99.90
13642;DHT22;6894;52.196;9.904;2023-04-24T09:45:09;14.00;99.90
13642;DHT22;6894;52.196;9.904;2023-04-24T09:47:36;14.00;99.90
13642;DHT22;6894;52.196;9.904;2023-04-24T09:50:10;13.70;99.90
13642;DHT22;6894;52.196;9.904;2023-04-24T09:52:40;13.60;99.90
13642;DHT22;6894;52.196;9.904;2023-04-24T09:55:13;13.40;99.90
13642;DHT22;6894;52.196;9.904;2023-04-24T09:57:47;13.50;99.90
13642;DHT22;6894;52.196;9.904;2023-04-24T10:00:19;13.40;99.90
13642;DHT22;6894;52.196;9.904;2023-04-24T10:02:50;13.30;99.90
13642;DHT22;6894;52.196;9.904;2023-04-24T10:05:17;13.30;99.90
13642;DHT22;6894;52.196;9.904;2023-04-24T10:07:44;13.30;99.90
13642;DHT22;6894;52.196;9.904;2023-04-24T10:10:13;13.20;99.90
13642;DHT22;6894;52.196;9.904;2023-04-24T10:12:40;13.00;99.90
13642;DHT22;6894;52.196;9.904;2023-04-24T10:15:09;12.90;99.90
13642;DHT22;6894;52.196;9.904;2023-04-24T10:17:37;12.80;99.90
13642;DHT22;6894;52.196;9.904;2023-04-24T10:20:06;12.80;99.90
13642;DHT22;6894;52.196;9.904;2023-04-24T10:22:34;12.80;99.90
13642;DHT22;6894;52.196;9.904;2023-04-24T10:25:04;12.80;99.90
13642;DHT22;6894;52.196;9.904;2023-04-24T10:27:34;12.70;99.90
13642;DHT22;6894;52.196;9.904;2023-04-24T10:30:02;12.70;99.90
13642;DHT22;6894;52.196;9.904;2023-04-24T10:32:29;12.70;99.90
13642;DHT22;6894;52.196;9.904;2023-04-24T10:34:56;12.80;99.90
13642;DHT22;6894;52.196;9.904;2023-04-24T10:37:23;12.80;99.90
13642;DHT22;6894;52.196;9.904;2023-04-24T10:39:51;12.80;99.90
13642;DHT22;6894;52.196;9.904;2023-04-24T10:42:20;12.90;99.90
13642;DHT22;6894;52.196;9.904;2023-04-24T10:44:48;12.90;99.90
13642;DHT22;6894;52.196;9.904;2023-04-24T10:47:15;12.90;99.90
13642;DHT22;6894;52.196;9.904;2023-04-24T10:49:42;12.90;99.90
13642;DHT22;6894;52.196;9.904;2023-04-24T10:52:09;13.10;99.90
13642;DHT22;6894;52.196;9.904;2023-04-24T10:54:42;13.30;99.90
13642;DHT22;6894;52.196;9.904;2023-04-24T10:57:28;13.40;99.90
13642;DHT22;6894;52.196;9.904;2023-04-24T11:00:19;13.30;99.90
13642;DHT22;6894;52.196;9.904;2023-04-24T11:02:47;13.20;99.90
13642;DHT22;6894;52.196;9.904;2023-04-24T11:05:19;13.00;99.90
13642;DHT22;6894;52.196;9.904;2023-04-24T11:08:11;12.90;99.90
13642;DHT22;6894;52.196;9.904;2023-04-24T11:10:44;12.80;99.90
13642;DHT22;6894;52.196;9.904;2023-04-24T11:13:14;12.80;99.90
13642;DHT22;6894;52.196;9.904;2023-04-24T11:15:43;12.90;99.90
13642;DHT22;6894;52.196;9.904;2023-04-24T11:18:13;13.30;99.90
13642;DHT22;6894;52.196;9.904;2023-04-24T11:20:42;13.20;99.90
13642;DHT22;6894;52.196;9.904;2023-04-24T11:23:12;13.60;99.90
13642;DHT22;6894;52.196;9.904;2023-04-24T11:25:39;14.00;99.90
13642;DHT22;6894;52.196;9.904;2023-04-24T11:28:06;14.20;99.90
13642;DHT22;6894;52.196;9.904;2023-04-24T11:30:33;14.10;99.90
13642;DHT22;6894;52.196;9.904;2023-04-24T11:33:05;14.10;99.90
13642;DHT22;6894;52.196;9.904;2023-04-24T11:35:35;14.10;99.90
13642;DHT22;6894;52.196;9.904;2023-04-24T11:38:06;13.80;99.90
13642;DHT22;6894;52.196;9.904;2023-04-24T11:40:34;13.40;99.90
13642;DHT22;6894;52.196;9.904;2023-04-24T11:43:01;13.30;99.90
13642;DHT22;6894;52.196;9.904;2023-04-24T11:45:30;13.20;99.90
13642;DHT22;6894;52.196;9.904;2023-04-24T11:47:57;13.00;99.90
13642;DHT22;6894;52.196;9.904;2023-04-24T11:50:27;13.00;99.90
13642;DHT22;6894;52.196;9.904;2023-04-24T11:52:55;13.00;28.50
13642;DHT22;6894;52.196;9.904;2023-04-24T11:55:28;13.00;1.00
13642;DHT22;6894;52.196;9.904;2023-04-24T11:57:57;13.00;99.90
13642;DHT22;6894;52.196;9.904;2023-04-24T12:00:26;13.70;99.90
13642;DHT22;6894;52.196;9.904;2023-04-24T12:03:04;14.00;1.00
13642;DHT22;6894;52.196;9.904;2023-04-24T12:05:32;14.30;1.00
13642;DHT22;6894;52.196;9.904;2023-04-24T12:08:00;14.20;99.90
13642;DHT22;6894;52.196;9.904;2023-04-24T12:10:28;14.00;99.90
13642;DHT22;6894;52.196;9.904;2023-04-24T12:12:56;13.90;99.90
13642;DHT22;6894;52.196;9.904;2023-04-24T12:15:24;13.70;99.90
13642;DHT22;6894;52.196;9.904;2023-04-24T12:17:51;13.70;99.90
13642;DHT22;6894;52.196;9.904;2023-04-24T12:20:24;13.80;99.90
13642;DHT22;6894;52.196;9.904;2023-04-24T12:22:54;13.50;99.90
13642;DHT22;6894;52.196;9.904;2023-04-24T12:25:23;13.20;99.90
13642;DHT22;6894;52.196;9.904;2023-04-24T12:27:53;12.80;99.90
13642;DHT22;6894;52.196;9.904;2023-04-24T12:30:20;12.20;99.90
13642;DHT22;6894;52.196;9.904;2023-04-24T12:32:49;11.80;99.90
13642;DHT22;6894;52.196;9.904;2023-04-24T12:35:20;11.40;12.10
13642;DHT22;6894;52.196;9.904;2023-04-24T12:37:47;11.10;99.90
13642;DHT22;6894;52.196;9.904;2023-04-24T12:40:17;11.00;99.90
13642;DHT22;6894;52.196;9.904;2023-04-24T12:42:45;11.20;99.90
13642;DHT22;6894;52.196;9.904;2023-04-24T12:45:13;11.50;99.90
13642;DHT22;6894;52.196;9.904;2023-04-24T12:47:41;12.00;1.00
13642;DHT22;6894;52.196;9.904;2023-04-24T12:50:10;12.70;99.90
13642;DHT22;6894;52.196;9.904;2023-04-24T12:52:37;13.30;99.90
13642;DHT22;6894;52.196;9.904;2023-04-24T12:55:05;13.50;99.90
13642;DHT22;6894;52.196;9.904;2023-04-24T12:57:36;13.30;99.90
13642;DHT22;6894;52.196;9.904;2023-04-24T13:00:05;13.10;99.90
13642;DHT22;6894;52.196;9.904;2023-04-24T13:02:33;12.80;99.90
13642;DHT22;6894;52.196;9.904;2023-04-24T13:05:00;12.70;99.90
13642;DHT22;6894;52.196;9.904;2023-04-24T13:07:27;12.50;99.90
13642;DHT22;6894;52.196;9.904;2023-04-24T13:09:55;12.30;99.90
13642;DHT22;6894;52.196;9.904;2023-04-24T13:12:22;12.10;99.90
13642;DHT22;6894;52.196;9.904;2023-04-24T13:14:52;12.00;99.90
13642;DHT22;6894;52.196;9.904;2023-04-24T13:17:19;11.80;99.90
13642;DHT22;6894;52.196;9.904;2023-04-24T13:19:45;11.70;99.90
13642;DHT22;6894;52.196;9.904;2023-04-24T13:22:13;11.80;99.90
13642;DHT22;6894;52.196;9.904;2023-04-24T13:24:39;11.70;99.90
13642;DHT22;6894;52.196;9.904;2023-04-24T13:27:07;11.60;99.90
13642;DHT22;6894;52.196;9.904;2023-04-24T13:29:35;11.70;99.90
13642;DHT22;6894;52.196;9.904;2023-04-24T13:32:03;11.50;99.90
13642;DHT22;6894;52.196;9.904;2023-04-24T13:34:30;11.40;99.90
13642;DHT22;6894;52.196;9.904;2023-04-24T13:36:57;11.30;99.90
13642;DHT22;6894;52.196;9.904;2023-04-24T13:39:25;11.40;99.90
13642;DHT22;6894;52.196;9.904;2023-04-24T13:41:52;11.30;99.90
13642;DHT22;6894;52.196;9.904;2023-04-24T13:44:20;11.40;99.90
13642;DHT22;6894;52.196;9.904;2023-04-24T13:46:48;11.40;99.90
13642;DHT22;6894;52.196;9.904;2023-04-24T13:49:16;11.30;99.90
13642;DHT22;6894;52.196;9.904;2023-04-24T13:51:44;11.20;99.90
13642;DHT22;6894;52.196;9.904;2023-04-24T13:54:12;11.10;99.90
13642;DHT22;6894;52.196;9.904;2023-04-24T13:56:39;10.90;99.90
13642;DHT22;6894;52.196;9.904;2023-04-24T13:59:05;10.80;99.90
13642;DHT22;6894;52.196;9.904;2023-04-24T14:01:32;11.50;99.90
13642;DHT22;6894;52.196;9.904;2023-04-24T14:03:59;10.60;99.90
13642;DHT22;6894;52.196;9.904;2023-04-24T14:06:27;10.50;99.90
13642;DHT22;6894;52.196;9.904;2023-04-24T14:08:54;10.50;99.90
13642;DHT22;6894;52.196;9.904;2023-04-24T14:11:21;10.30;99.90
13642;DHT22;6894;52.196;9.904;2023-04-24T14:13:48;10.20;99.90
13642;DHT22;6894;52.196;9.904;2023-04-24T14:16:15;10.00;99.90
13642;DHT22;6894;52.196;9.904;2023-04-24T14:18:42;10.00;99.90
13642;DHT22;6894;52.196;9.904;2023-04-24T14:21:08;10.00;99.90
13642;DHT22;6894;52.196;9.904;2023-04-24T14:23:36;9.80;99.90
13642;DHT22;6894;52.196;9.904;2023-04-24T14:26:03;9.80;99.90
13642;DHT22;6894;52.196;9.904;2023-04-24T14:28:30;9.80;99.90
13642;DHT22;6894;52.196;9.904;2023-04-24T14:30:57;9.80;99.90
13642;DHT22;6894;52.196;9.904;2023-04-24T14:33:24;9.80;99.90
13642;DHT22;6894;52.196;9.904;2023-04-24T14:35:50;9.70;99.90
13642;DHT22;6894;52.196;9.904;2023-04-24T14:38:17;9.70;99.90
13642;DHT22;6894;52.196;9.904;2023-04-24T14:40:46;9.70;99.90
13642;DHT22;6894;52.196;9.904;2023-04-24T14:43:12;9.60;99.90
13642;DHT22;6894;52.196;9.904;2023-04-24T14:45:39;9.60;99.90
13642;DHT22;6894;52.196;9.904;2023-04-24T14:48:07;9.60;99.90
13642;DHT22;6894;52.196;9.904;2023-04-24T14:50:34;9.50;99.90
13642;DHT22;6894;52.196;9.904;2023-04-24T14:53:01;9.40;99.90
13642;DHT22;6894;52.196;9.904;2023-04-24T14:55:28;9.40;99.90
13642;DHT22;6894;52.196;9.904;2023-04-24T14:57:56;9.30;99.90
13642;DHT22;6894;52.196;9.904;2023-04-24T15:00:23;9.30;99.90
13642;DHT22;6894;52.196;9.904;2023-04-24T15:02:50;9.30;99.90
13642;DHT22;6894;52.196;9.904;2023-04-24T15:05:16;9.20;99.90
13642;DHT22;6894;52.196;9.904;2023-04-24T15:07:43;9.30;99.90
13642;DHT22;6894;52.196;9.904;2023-04-24T15:10:11;9.40;99.90
13642;DHT22;6894;52.196;9.904;2023-04-24T15:12:37;9.30;99.90
13642;DHT22;6894;52.196;9.904;2023-04-24T15:15:07;9.30;99.90
13642;DHT22;6894;52.196;9.904;2023-04-24T15:17:34;9.40;99.90
13642;DHT22;6894;52.196;9.904;2023-04-24T15:20:01;9.40;99.90
13642;DHT22;6894;52.196;9.904;2023-04-24T15:22:29;9.30;99.90
13642;DHT22;6894;52.196;9.904;2023-04-24T15:24:55;9.30;99.90
13642;DHT22;6894;52.196;9.904;2023-04-24T15:27:22;9.20;99.90
13642;DHT22;6894;52.196;9.904;2023-04-24T15:29:49;9.30;99.90
13642;DHT22;6894;52.196;9.904;2023-04-24T15:32:18;9.40;99.90
13642;DHT22;6894;52.196;9.904;2023-04-24T15:34:44;9.30;99.90
13642;DHT22;6894;52.196;9.904;2023-04-24T15:37:11;9.30;99.90
13642;DHT22;6894;52.196;9.904;2023-04-24T15:39:38;9.30;99.90
13642;DHT22;6894;52.196;9.904;2023-04-24T15:42:05;9.40;99.90
13642;DHT22;6894;52.196;9.904;2023-04-24T15:44:31;9.40;99.90
13642;DHT22;6894;52.196;9.904;2023-04-24T15:47:01;9.60;99.90
13642;DHT22;6894;52.196;9.904;2023-04-24T15:49:29;9.60;99.90
13642;DHT22;6894;52.196;9.904;2023-04-24T15:51:57;9.70;99.90